EA1FBW-1 Weather Reports


Display with metric or nautical units.
time (UTC)temp
F
wind
direction
speed
MPH
gust
MPH
rain 1hr
in
rain 24hr
in
rain mn
in
humidity
%
barometer
mb
20200126232519 0 248 1.0 2.0 0.00 0.00 0.00 1030.2
20200126231519 0 252 2.0 5.0 0.00 0.00 0.00 1030.1
20200126230519 0 225 1.0 2.0 0.00 0.00 0.00 1029.1
20200126225519 0 204 1.0 4.0 0.00 0.00 0.00 1029.1
20200126224519 0 198 4.0 6.0 0.00 0.00 0.00 1029.1
20200126223517 0 216 3.0 5.0 0.00 0.00 0.00 1029.1
20200126222519 0 245 3.0 5.0 0.00 0.00 0.00 1029.1
20200126221519 0 242 2.0 3.0 0.00 0.00 0.00 1029.1
20200126220521 0 201 5.0 8.0 0.00 0.00 0.00 1029.1
20200126215519 0 205 4.0 6.0 0.00 0.00 0.00 1030.2
20200126214519 0 220 3.0 6.0 0.00 0.00 0.00 1030.2
20200126213519 0 221 3.0 5.0 0.00 0.00 0.00 1030.2
20200126212517 0 206 6.0 11.0 0.00 0.00 0.00 1029.1
20200126211519 0 201 7.0 11.0 0.00 0.00 0.00 1029.3
20200126210519 0 201 5.0 9.0 0.00 0.00 0.00 1030.2
20200126205519 0 202 6.0 10.0 0.00 0.00 0.00 1030.2
20200126204519 0 199 8.0 16.0 0.00 0.00 0.00 1030.2
20200126203519 0 193 8.0 17.0 0.00 0.00 0.00 1030.2
20200126202519 0 183 7.0 10.0 0.00 0.00 0.00 1030.2
20200126201517 0 200 7.0 11.0 0.00 0.00 0.00 1030.2
20200126200519 0 200 6.0 9.0 0.00 0.00 0.00 1030.2
20200126195518 0 200 6.0 11.0 0.00 0.00 0.00 1030.2
20200126194519 0 203 4.0 7.0 0.00 0.00 0.00 1030.1
20200126193519 0 203 5.0 8.0 0.00 0.00 0.00 1029.1
20200126192519 0 201 5.0 6.0 0.00 0.00 0.00 1029.1
20200126191531 0 198 5.0 9.0 0.00 0.00 0.00 1029.1
20200126190517 0 203 4.0 4.0 0.00 0.00 0.00 1029.1
20200126185519 0 203 3.0 6.0 0.00 0.00 0.00 1029.1
20200126184519 0 203 3.0 4.0 0.00 0.00 0.00 1029.1
20200126183519 0 203 3.0 4.0 0.00 0.00 0.00 1029.1
20200126182519 0 203 3.0 4.0 0.00 0.00 0.00 1029.1
20200126181519 0 221 3.0 5.0 0.00 0.00 0.00 1029.0
20200126180518 0 231 4.0 6.0 0.00 0.00 0.00 1028.1
20200126175516 0 235 4.0 6.0 0.00 0.00 0.00 1030.2
20200126174516 0 229 3.0 5.0 0.00 0.00 0.00 1029.9
20200126173519 0 248 3.0 6.0 0.00 0.00 0.00 1028.1
20200126172519 0 233 4.0 7.0 0.00 0.00 0.00 1028.1
20200126171520 0 242 4.0 6.0 0.00 0.00 0.00 1028.2
20200126170519 0 241 6.0 8.0 0.00 0.00 0.00 1029.1
20200126165518 0 246 5.0 7.0 0.00 0.00 0.00 1028.1
20200126164517 0 241 7.0 11.0 0.00 0.00 0.00 1028.4
20200126163519 0 221 5.0 10.0 0.00 0.00 0.00 1030.2
20200126162519 0 234 7.0 14.0 0.00 0.00 0.00 1029.1
20200126161519 0 238 7.0 11.0 0.00 0.00 0.00 1029.1
20200126160519 0 235 8.0 13.0 0.00 0.00 0.00 1029.1
20200126155519 0 248 7.0 11.0 0.00 0.00 0.00 1029.1
20200126154518 0 248 7.0 13.0 0.00 0.00 0.00 1029.1
20200126153517 0 248 4.0 8.0 0.00 0.00 0.00 1029.1
20200126152519 0 282 6.0 9.0 0.00 0.00 0.00 1029.1
20200126151519 0 268 6.0 9.0 0.00 0.00 0.00 1029.1
20200126150519 0 262 8.0 13.0 0.00 0.00 0.00 1029.1
20200126145517 0 267 7.0 12.0 0.00 0.00 0.00 1030.2
20200126144519 0 263 7.0 11.0 0.00 0.00 0.00 1030.1
20200126143519 0 275 7.0 10.0 0.00 0.00 0.00 1029.1
20200126142516 0 234 7.0 11.0 0.00 0.00 0.00 1029.1
20200126141519 0 258 7.0 10.0 0.00 0.00 0.00 1029.3
20200126140519 0 256 7.0 11.0 0.00 0.00 0.00 1030.2
20200126135519 0 257 7.0 10.0 0.00 0.00 0.00 1029.1
20200126134519 0 261 7.0 9.0 0.00 0.00 0.00 1029.1
20200126133519 0 267 6.0 9.0 0.00 0.00 0.00 1029.1
20200126132519 0 272 5.0 7.0 0.00 0.00 0.00 1028.1
20200126131516 0 250 5.0 9.0 0.00 0.00 0.00 1028.2
20200126130519 0 242 7.0 12.0 0.00 0.00 0.00 1029.1
20200126125519 0 254 5.0 12.0 0.00 0.00 0.00 1029.1
20200126124519 0 235 8.0 12.0 0.00 0.00 0.00 1029.1
20200126123520 0 238 5.0 9.0 0.00 0.00 0.00 1029.1
20200126122519 0 235 8.0 11.0 0.00 0.00 0.00 1029.1
20200126121518 0 249 6.0 9.0 0.00 0.00 0.00 1029.1
20200126120518 0 233 5.0 10.0 0.00 0.00 0.00 1029.1
20200126115519 0 248 5.0 7.0 0.00 0.00 0.00 1030.2
20200126114519 0 266 6.0 11.0 0.00 0.00 0.00 1030.2
20200126113519 0 263 5.0 10.0 0.00 0.00 0.00 1030.2
20200126112519 0 208 4.0 6.0 0.00 0.00 0.00 1030.2
20200126111519 0 249 4.0 7.0 0.00 0.00 0.00 1030.2
20200126110518 0 241 3.0 5.0 0.00 0.00 0.00 1030.2
20200126105516 0 262 5.0 8.0 0.00 0.00 0.00 1030.2
20200126104519 0 254 5.0 10.0 0.00 0.00 0.00 1030.2
20200126103519 0 263 4.0 6.0 0.00 0.00 0.00 1030.2
20200126102519 0 269 3.0 6.0 0.00 0.00 0.00 1030.2
20200126101519 0 241 4.0 7.0 0.00 0.00 0.00 1030.2
20200126100520 0 208 2.0 5.0 0.00 0.00 0.00 1030.2
20200126095516 0 203 2.0 4.0 0.00 0.00 0.00 1029.1
20200126094516 0 0.0 0.0 0.00 0.00 0.00 1029.1
20200126093519 0 0.0 0.0 0.00 0.00 0.00 1029.1
20200126092519 0 203 2.0 4.0 0.00 0.00 0.00 1029.1
20200126091519 0 203 3.0 4.0 0.00 0.00 0.00 1029.1
20200126090519 0 203 2.0 4.0 0.00 0.00 0.00 1029.1
20200126085519 0 203 2.0 4.0 0.00 0.00 0.00 1030.2
20200126084518 0 193 3.0 4.0 0.00 0.00 0.00 1030.1
20200126083516 0 167 7.0 10.0 0.00 0.00 0.00 1029.1
20200126082521 0 203 2.0 4.0 0.00 0.00 0.00 1029.1
20200126081519 0 203 2.0 5.0 0.00 0.00 0.00 1029.1
20200126080519 0 203 2.0 5.0 0.00 0.00 0.00 1029.1
20200126075519 0 203 3.0 5.0 0.00 0.00 0.00 1028.1
20200126074520 0 203 3.0 4.0 0.00 0.00 0.00 1028.1
20200126073518 0 203 3.0 6.0 0.00 0.00 0.00 1028.1
20200126072516 0 203 3.0 4.0 0.00 0.00 0.00 1028.1
20200126071519 0 225 3.0 6.0 0.00 0.00 0.00 1027.9
20200126070519 0 218 4.0 6.0 0.00 0.00 0.00 1027.0
20200126065519 0 204 3.0 5.0 0.00 0.00 0.00 1027.0
20200126064520 0 220 5.0 7.0 0.00 0.00 0.00 1026.8
20200126063519 0 227 4.0 6.0 0.00 0.00 0.00 1025.9
20200126062518 0 248 3.0 5.0 0.00 0.00 0.00 1028.1
20200126061516 0 248 2.0 3.0 0.00 0.00 0.00 1028.1
20200126060519 0 248 3.0 4.0 0.00 0.00 0.00 1027.0
20200126055519 0 225 2.0 4.0 0.00 0.00 0.00 1027.0
20200126054519 0 225 1.0 3.0 0.00 0.00 0.00 1027.0
20200126053519 0 225 1.0 2.0 0.00 0.00 0.00 1027.0
20200126052519 0 0.0 1.0 0.00 0.00 0.00 1027.0
20200126051518 0 233 3.0 4.0 0.00 0.00 0.00 1027.0
20200126050516 0 270 2.0 4.0 0.00 0.00 0.00 1027.0
20200126045519 0 270 0.0 2.0 0.00 0.00 0.00 1027.0
20200126044519 0 270 3.0 4.0 0.00 0.00 0.00 1027.0
20200126043519 0 0.0 4.0 0.00 0.00 0.00 1027.0
20200126042520 0 270 1.0 3.0 0.00 0.00 0.00 1025.9
20200126041518 0 270 1.0 4.0 0.00 0.00 0.00 1025.9
20200126040518 0 270 3.0 4.0 0.00 0.00 0.00 1025.9
20200126035516 0 270 3.0 4.0 0.00 0.00 0.00 1025.9
20200126034519 0 270 3.0 4.0 0.00 0.00 0.00 1025.9
20200126033519 0 270 2.0 4.0 0.00 0.00 0.00 1025.9
20200126032519 0 270 3.0 4.0 0.00 0.00 0.00 1025.9
20200126031519 0 270 1.0 3.0 0.00 0.00 0.00 1025.9
20200126030519 0 0.0 0.0 0.00 0.00 0.00 1025.9
20200126025518 0 0.0 1.0 0.00 0.00 0.00 1024.8
20200126024516 0 270 2.0 3.0 0.00 0.00 0.00 1024.8
20200126023519 0 270 2.0 3.0 0.00 0.00 0.00 1024.8
20200126022519 0 270 1.0 3.0 0.00 0.00 0.00 1024.8
20200126021519 0 270 1.0 3.0 0.00 0.00 0.00 1024.8
20200126020515 0 0.0 0.0 0.00 0.00 0.00 1024.8
20200126015519 0 0.0 0.0 0.00 0.00 0.00 1024.8
20200126014518 0 270 0.0 2.0 0.00 0.00 0.00 1024.8
20200126013516 0 270 2.0 3.0 0.00 0.00 0.00 1024.8
20200126012519 0 262 2.0 4.0 0.00 0.00 0.00 1024.8
20200126011519 0 248 1.0 2.0 0.00 0.00 0.00 1024.8
20200126010519 0 248 1.0 2.0 0.00 0.00 0.00 1024.8
20200126005519 0 248 2.0 3.0 0.00 0.00 0.00 1024.8
20200126004519 0 262 3.0 5.0 0.00 0.00 0.00 1024.8
20200126003517 0 270 3.0 4.0 0.00 0.00 0.00 1024.8
20200126002516 0 270 2.0 3.0 0.00 0.00 0.00 1024.8
20200126001519 0 270 2.0 5.0 0.00 0.00 0.00 1024.8
20200126000519 0 293 2.0 4.0 0.00 0.00 0.00 1024.8
20200125235519 0 293 2.0 3.0 0.00 0.00 0.00 1024.8
20200125234519 0 293 1.0 2.0 0.00 0.00 0.00 1024.6
20200125233519 0 293 1.0 2.0 0.00 0.00 0.00 1023.7